sensor_id;sensor_type;location;lat;lon;timestamp;P1;durP1;ratioP1;P2;durP2;ratioP2
23702;SDS011;12030;50.376;8.762;2022-12-18T00:01:47;23.60;;;12.33;;
23702;SDS011;12030;50.376;8.762;2022-12-18T00:04:23;25.63;;;11.70;;
23702;SDS011;12030;50.376;8.762;2022-12-18T00:06:50;21.80;;;11.30;;
23702;SDS011;12030;50.376;8.762;2022-12-18T00:09:16;25.33;;;11.47;;
23702;SDS011;12030;50.376;8.762;2022-12-18T00:11:41;23.23;;;11.33;;
23702;SDS011;12030;50.376;8.762;2022-12-18T00:14:08;21.20;;;10.53;;
23702;SDS011;12030;50.376;8.762;2022-12-18T00:16:35;28.07;;;11.10;;
23702;SDS011;12030;50.376;8.762;2022-12-18T00:19:02;25.43;;;10.97;;
23702;SDS011;12030;50.376;8.762;2022-12-18T00:21:28;23.97;;;11.00;;
23702;SDS011;12030;50.376;8.762;2022-12-18T00:23:55;33.83;;;11.87;;
23702;SDS011;12030;50.376;8.762;2022-12-18T00:26:28;27.67;;;9.80;;
23702;SDS011;12030;50.376;8.762;2022-12-18T00:28:58;27.63;;;11.53;;
23702;SDS011;12030;50.376;8.762;2022-12-18T00:31:25;25.60;;;11.77;;
23702;SDS011;12030;50.376;8.762;2022-12-18T00:33:51;29.93;;;12.70;;
23702;SDS011;12030;50.376;8.762;2022-12-18T00:36:19;25.47;;;12.27;;
23702;SDS011;12030;50.376;8.762;2022-12-18T00:38:46;20.20;;;10.57;;
23702;SDS011;12030;50.376;8.762;2022-12-18T00:41:13;26.90;;;12.23;;
23702;SDS011;12030;50.376;8.762;2022-12-18T00:43:59;18.20;;;10.43;;
23702;SDS011;12030;50.376;8.762;2022-12-18T00:46:24;23.73;;;11.67;;
23702;SDS011;12030;50.376;8.762;2022-12-18T00:48:50;26.67;;;12.10;;
23702;SDS011;12030;50.376;8.762;2022-12-18T00:51:15;24.27;;;12.70;;
23702;SDS011;12030;50.376;8.762;2022-12-18T00:53:41;25.70;;;11.63;;
23702;SDS011;12030;50.376;8.762;2022-12-18T00:56:06;27.93;;;11.90;;
23702;SDS011;12030;50.376;8.762;2022-12-18T00:58:32;19.50;;;9.73;;
23702;SDS011;12030;50.376;8.762;2022-12-18T01:01:00;31.93;;;12.67;;
23702;SDS011;12030;50.376;8.762;2022-12-18T01:03:25;33.30;;;13.70;;
23702;SDS011;12030;50.376;8.762;2022-12-18T01:05:51;23.97;;;11.97;;
23702;SDS011;12030;50.376;8.762;2022-12-18T01:08:16;31.57;;;13.53;;
23702;SDS011;12030;50.376;8.762;2022-12-18T01:10:42;27.37;;;12.70;;
23702;SDS011;12030;50.376;8.762;2022-12-18T01:13:08;31.13;;;13.87;;
23702;SDS011;12030;50.376;8.762;2022-12-18T01:15:33;27.70;;;13.43;;
23702;SDS011;12030;50.376;8.762;2022-12-18T01:17:59;30.07;;;12.93;;
23702;SDS011;12030;50.376;8.762;2022-12-18T01:20:24;28.67;;;13.60;;
23702;SDS011;12030;50.376;8.762;2022-12-18T01:22:50;27.77;;;12.93;;
23702;SDS011;12030;50.376;8.762;2022-12-18T01:25:15;23.83;;;12.63;;
23702;SDS011;12030;50.376;8.762;2022-12-18T01:27:41;24.93;;;12.97;;
23702;SDS011;12030;50.376;8.762;2022-12-18T01:30:07;23.50;;;12.73;;
23702;SDS011;12030;50.376;8.762;2022-12-18T01:32:32;28.00;;;12.20;;
23702;SDS011;12030;50.376;8.762;2022-12-18T01:34:58;26.80;;;12.10;;
23702;SDS011;12030;50.376;8.762;2022-12-18T01:37:24;30.80;;;12.67;;
23702;SDS011;12030;50.376;8.762;2022-12-18T01:39:49;30.10;;;12.17;;
23702;SDS011;12030;50.376;8.762;2022-12-18T01:42:17;29.47;;;13.73;;
23702;SDS011;12030;50.376;8.762;2022-12-18T01:47:28;25.17;;;12.00;;
23702;SDS011;12030;50.376;8.762;2022-12-18T01:50:13;35.47;;;12.80;;
23702;SDS011;12030;50.376;8.762;2022-12-18T01:52:52;28.17;;;12.27;;
23702;SDS011;12030;50.376;8.762;2022-12-18T01:55:40;24.63;;;11.53;;
23702;SDS011;12030;50.376;8.762;2022-12-18T01:58:17;29.40;;;11.90;;
23702;SDS011;12030;50.376;8.762;2022-12-18T02:00:44;27.90;;;14.03;;
23702;SDS011;12030;50.376;8.762;2022-12-18T02:03:10;25.27;;;11.17;;
23702;SDS011;12030;50.376;8.762;2022-12-18T02:05:38;26.47;;;11.00;;
23702;SDS011;12030;50.376;8.762;2022-12-18T02:08:21;24.50;;;10.77;;
23702;SDS011;12030;50.376;8.762;2022-12-18T02:18:56;23.17;;;10.20;;
23702;SDS011;12030;50.376;8.762;2022-12-18T02:27:50;19.43;;;7.97;;
23702;SDS011;12030;50.376;8.762;2022-12-18T02:30:18;14.83;;;8.17;;
23702;SDS011;12030;50.376;8.762;2022-12-18T02:32:45;18.73;;;9.37;;
23702;SDS011;12030;50.376;8.762;2022-12-18T02:35:17;18.90;;;9.70;;
23702;SDS011;12030;50.376;8.762;2022-12-18T02:37:47;25.20;;;10.57;;
23702;SDS011;12030;50.376;8.762;2022-12-18T02:40:13;26.53;;;10.37;;
23702;SDS011;12030;50.376;8.762;2022-12-18T02:42:40;32.53;;;12.77;;
23702;SDS011;12030;50.376;8.762;2022-12-18T02:45:06;24.83;;;11.23;;
23702;SDS011;12030;50.376;8.762;2022-12-18T02:47:32;24.27;;;10.87;;
23702;SDS011;12030;50.376;8.762;2022-12-18T02:55:28;27.80;;;11.37;;
23702;SDS011;12030;50.376;8.762;2022-12-18T02:58:14;20.73;;;10.90;;
23702;SDS011;12030;50.376;8.762;2022-12-18T03:00:46;26.20;;;10.83;;
23702;SDS011;12030;50.376;8.762;2022-12-18T03:03:25;34.17;;;11.50;;
23702;SDS011;12030;50.376;8.762;2022-12-18T03:06:00;25.43;;;11.50;;
23702;SDS011;12030;50.376;8.762;2022-12-18T03:08:35;27.83;;;13.03;;
23702;SDS011;12030;50.376;8.762;2022-12-18T03:11:05;22.30;;;10.37;;
23702;SDS011;12030;50.376;8.762;2022-12-18T03:16:09;23.87;;;11.20;;
23702;SDS011;12030;50.376;8.762;2022-12-18T03:18:54;20.67;;;9.87;;
23702;SDS011;12030;50.376;8.762;2022-12-18T03:21:26;24.17;;;10.77;;
23702;SDS011;12030;50.376;8.762;2022-12-18T03:23:57;24.00;;;11.13;;
23702;SDS011;12030;50.376;8.762;2022-12-18T03:26:24;28.93;;;12.47;;
23702;SDS011;12030;50.376;8.762;2022-12-18T03:28:53;27.63;;;12.33;;
23702;SDS011;12030;50.376;8.762;2022-12-18T03:31:23;28.47;;;11.60;;
23702;SDS011;12030;50.376;8.762;2022-12-18T03:34:25;27.60;;;12.20;;
23702;SDS011;12030;50.376;8.762;2022-12-18T03:36:46;33.80;;;12.93;;
23702;SDS011;12030;50.376;8.762;2022-12-18T03:39:12;31.27;;;12.33;;
23702;SDS011;12030;50.376;8.762;2022-12-18T03:41:51;30.37;;;13.33;;
23702;SDS011;12030;50.376;8.762;2022-12-18T03:44:52;28.00;;;12.40;;
23702;SDS011;12030;50.376;8.762;2022-12-18T03:47:27;24.87;;;11.87;;
23702;SDS011;12030;50.376;8.762;2022-12-18T03:50:01;21.07;;;9.37;;
23702;SDS011;12030;50.376;8.762;2022-12-18T03:52:36;25.40;;;11.93;;
23702;SDS011;12030;50.376;8.762;2022-12-18T03:55:10;31.70;;;11.03;;
23702;SDS011;12030;50.376;8.762;2022-12-18T03:57:37;27.23;;;12.23;;
23702;SDS011;12030;50.376;8.762;2022-12-18T04:00:05;26.60;;;12.60;;
23702;SDS011;12030;50.376;8.762;2022-12-18T04:02:33;25.40;;;11.33;;
23702;SDS011;12030;50.376;8.762;2022-12-18T04:05:02;32.73;;;12.80;;
23702;SDS011;12030;50.376;8.762;2022-12-18T04:07:29;19.83;;;10.40;;
23702;SDS011;12030;50.376;8.762;2022-12-18T04:09:56;29.33;;;12.23;;
23702;SDS011;12030;50.376;8.762;2022-12-18T04:12:24;25.63;;;10.90;;
23702;SDS011;12030;50.376;8.762;2022-12-18T04:14:53;22.53;;;11.77;;
23702;SDS011;12030;50.376;8.762;2022-12-18T04:17:19;23.50;;;12.33;;
23702;SDS011;12030;50.376;8.762;2022-12-18T04:19:44;23.60;;;10.60;;
23702;SDS011;12030;50.376;8.762;2022-12-18T04:22:10;26.07;;;11.20;;
23702;SDS011;12030;50.376;8.762;2022-12-18T04:24:36;27.70;;;11.97;;
23702;SDS011;12030;50.376;8.762;2022-12-18T04:27:01;18.40;;;8.87;;
23702;SDS011;12030;50.376;8.762;2022-12-18T04:29:27;21.93;;;11.17;;
23702;SDS011;12030;50.376;8.762;2022-12-18T04:31:53;16.00;;;8.40;;
23702;SDS011;12030;50.376;8.762;2022-12-18T04:34:19;21.70;;;11.33;;
23702;SDS011;12030;50.376;8.762;2022-12-18T04:36:45;20.27;;;10.43;;
23702;SDS011;12030;50.376;8.762;2022-12-18T04:39:11;19.80;;;9.77;;
23702;SDS011;12030;50.376;8.762;2022-12-18T04:41:36;21.10;;;9.80;;
23702;SDS011;12030;50.376;8.762;2022-12-18T04:44:02;19.37;;;10.23;;
23702;SDS011;12030;50.376;8.762;2022-12-18T04:46:28;19.43;;;10.47;;
23702;SDS011;12030;50.376;8.762;2022-12-18T04:48:53;21.97;;;10.80;;
23702;SDS011;12030;50.376;8.762;2022-12-18T04:51:19;23.23;;;11.10;;
23702;SDS011;12030;50.376;8.762;2022-12-18T04:53:44;20.77;;;11.07;;
23702;SDS011;12030;50.376;8.762;2022-12-18T04:56:10;19.97;;;10.97;;
23702;SDS011;12030;50.376;8.762;2022-12-18T04:58:38;15.97;;;9.50;;
23702;SDS011;12030;50.376;8.762;2022-12-18T05:01:05;18.17;;;9.53;;
23702;SDS011;12030;50.376;8.762;2022-12-18T05:03:32;21.50;;;10.27;;
23702;SDS011;12030;50.376;8.762;2022-12-18T05:05:58;23.30;;;10.17;;
23702;SDS011;12030;50.376;8.762;2022-12-18T05:08:24;18.17;;;8.97;;
23702;SDS011;12030;50.376;8.762;2022-12-18T05:10:49;16.97;;;9.20;;
23702;SDS011;12030;50.376;8.762;2022-12-18T05:13:22;15.10;;;8.47;;
23702;SDS011;12030;50.376;8.762;2022-12-18T05:15:51;15.97;;;8.37;;
23702;SDS011;12030;50.376;8.762;2022-12-18T05:18:17;17.17;;;8.70;;
23702;SDS011;12030;50.376;8.762;2022-12-18T05:20:43;14.50;;;8.00;;
23702;SDS011;12030;50.376;8.762;2022-12-18T05:23:08;14.77;;;8.23;;
23702;SDS011;12030;50.376;8.762;2022-12-18T05:25:34;13.17;;;7.37;;
23702;SDS011;12030;50.376;8.762;2022-12-18T05:27:59;15.43;;;7.33;;
23702;SDS011;12030;50.376;8.762;2022-12-18T05:30:25;15.23;;;8.07;;
23702;SDS011;12030;50.376;8.762;2022-12-18T05:32:51;16.30;;;8.47;;
23702;SDS011;12030;50.376;8.762;2022-12-18T05:35:16;12.67;;;7.60;;
23702;SDS011;12030;50.376;8.762;2022-12-18T05:37:42;15.03;;;7.50;;
23702;SDS011;12030;50.376;8.762;2022-12-18T05:40:07;11.53;;;6.83;;
23702;SDS011;12030;50.376;8.762;2022-12-18T05:42:34;14.63;;;7.57;;
23702;SDS011;12030;50.376;8.762;2022-12-18T05:44:59;14.13;;;7.53;;
23702;SDS011;12030;50.376;8.762;2022-12-18T05:47:26;15.93;;;7.83;;
23702;SDS011;12030;50.376;8.762;2022-12-18T05:49:52;12.73;;;6.97;;
23702;SDS011;12030;50.376;8.762;2022-12-18T05:52:18;13.13;;;7.73;;
23702;SDS011;12030;50.376;8.762;2022-12-18T05:54:43;19.73;;;9.20;;
23702;SDS011;12030;50.376;8.762;2022-12-18T05:57:09;18.67;;;7.40;;
23702;SDS011;12030;50.376;8.762;2022-12-18T05:59:35;13.07;;;7.30;;
23702;SDS011;12030;50.376;8.762;2022-12-18T06:02:00;18.90;;;8.03;;
23702;SDS011;12030;50.376;8.762;2022-12-18T06:04:26;15.03;;;8.27;;
23702;SDS011;12030;50.376;8.762;2022-12-18T06:06:55;15.00;;;7.90;;
23702;SDS011;12030;50.376;8.762;2022-12-18T06:09:21;14.50;;;7.60;;
23702;SDS011;12030;50.376;8.762;2022-12-18T06:11:46;15.73;;;8.27;;
23702;SDS011;12030;50.376;8.762;2022-12-18T06:14:12;15.67;;;8.30;;
23702;SDS011;12030;50.376;8.762;2022-12-18T06:16:37;21.00;;;13.38;;
23702;SDS011;12030;50.376;8.762;2022-12-18T06:19:04;20.57;;;13.90;;
23702;SDS011;12030;50.376;8.762;2022-12-18T06:21:30;18.85;;;13.07;;
23702;SDS011;12030;50.376;8.762;2022-12-18T06:23:56;18.87;;;13.33;;
23702;SDS011;12030;50.376;8.762;2022-12-18T06:26:22;19.13;;;13.23;;
23702;SDS011;12030;50.376;8.762;2022-12-18T06:28:47;19.83;;;13.65;;
23702;SDS011;12030;50.376;8.762;2022-12-18T06:31:13;20.37;;;13.83;;
23702;SDS011;12030;50.376;8.762;2022-12-18T06:33:39;19.90;;;10.87;;
23702;SDS011;12030;50.376;8.762;2022-12-18T06:36:05;16.57;;;8.77;;
23702;SDS011;12030;50.376;8.762;2022-12-18T06:38:34;14.73;;;8.37;;
23702;SDS011;12030;50.376;8.762;2022-12-18T06:41:00;16.33;;;8.40;;
23702;SDS011;12030;50.376;8.762;2022-12-18T06:43:30;16.53;;;8.37;;
23702;SDS011;12030;50.376;8.762;2022-12-18T06:45:59;17.50;;;9.50;;
23702;SDS011;12030;50.376;8.762;2022-12-18T06:48:25;18.27;;;9.17;;
23702;SDS011;12030;50.376;8.762;2022-12-18T06:50:51;16.60;;;7.83;;
23702;SDS011;12030;50.376;8.762;2022-12-18T06:53:17;16.37;;;9.43;;
23702;SDS011;12030;50.376;8.762;2022-12-18T06:55:42;16.13;;;8.37;;
23702;SDS011;12030;50.376;8.762;2022-12-18T06:58:08;20.03;;;9.07;;
23702;SDS011;12030;50.376;8.762;2022-12-18T07:00:35;17.67;;;9.30;;
23702;SDS011;12030;50.376;8.762;2022-12-18T07:03:01;18.27;;;8.87;;
23702;SDS011;12030;50.376;8.762;2022-12-18T07:05:26;15.73;;;8.63;;
23702;SDS011;12030;50.376;8.762;2022-12-18T07:07:52;19.00;;;8.93;;
23702;SDS011;12030;50.376;8.762;2022-12-18T07:10:17;17.47;;;9.10;;
23702;SDS011;12030;50.376;8.762;2022-12-18T07:12:43;20.87;;;9.60;;
23702;SDS011;12030;50.376;8.762;2022-12-18T07:15:08;18.97;;;8.97;;
23702;SDS011;12030;50.376;8.762;2022-12-18T07:17:34;19.63;;;9.03;;
23702;SDS011;12030;50.376;8.762;2022-12-18T07:20:00;16.40;;;8.33;;
23702;SDS011;12030;50.376;8.762;2022-12-18T07:22:26;21.10;;;8.57;;
23702;SDS011;12030;50.376;8.762;2022-12-18T07:24:51;20.80;;;9.87;;
23702;SDS011;12030;50.376;8.762;2022-12-18T07:27:17;20.30;;;10.43;;
23702;SDS011;12030;50.376;8.762;2022-12-18T07:29:43;20.37;;;9.20;;
23702;SDS011;12030;50.376;8.762;2022-12-18T07:32:08;20.93;;;9.77;;
23702;SDS011;12030;50.376;8.762;2022-12-18T07:34:34;18.37;;;9.47;;
23702;SDS011;12030;50.376;8.762;2022-12-18T07:36:59;19.97;;;10.37;;
23702;SDS011;12030;50.376;8.762;2022-12-18T07:39:25;23.73;;;10.73;;
23702;SDS011;12030;50.376;8.762;2022-12-18T07:41:51;16.50;;;8.87;;
23702;SDS011;12030;50.376;8.762;2022-12-18T07:44:35;17.10;;;8.80;;
23702;SDS011;12030;50.376;8.762;2022-12-18T07:47:01;20.60;;;10.40;;
23702;SDS011;12030;50.376;8.762;2022-12-18T07:49:27;24.40;;;10.57;;
23702;SDS011;12030;50.376;8.762;2022-12-18T07:51:54;24.80;;;10.83;;
23702;SDS011;12030;50.376;8.762;2022-12-18T07:54:20;20.83;;;10.30;;
23702;SDS011;12030;50.376;8.762;2022-12-18T07:56:47;22.00;;;11.20;;
23702;SDS011;12030;50.376;8.762;2022-12-18T07:59:12;19.57;;;10.37;;
23702;SDS011;12030;50.376;8.762;2022-12-18T08:01:38;20.17;;;10.30;;
23702;SDS011;12030;50.376;8.762;2022-12-18T08:04:03;18.30;;;10.20;;
23702;SDS011;12030;50.376;8.762;2022-12-18T08:06:29;22.53;;;10.57;;
23702;SDS011;12030;50.376;8.762;2022-12-18T08:08:54;22.83;;;11.47;;
23702;SDS011;12030;50.376;8.762;2022-12-18T08:11:21;23.93;;;12.37;;
23702;SDS011;12030;50.376;8.762;2022-12-18T08:13:47;25.70;;;12.80;;
23702;SDS011;12030;50.376;8.762;2022-12-18T08:16:13;33.87;;;15.60;;
23702;SDS011;12030;50.376;8.762;2022-12-18T08:18:39;26.73;;;12.80;;
23702;SDS011;12030;50.376;8.762;2022-12-18T08:21:11;23.57;;;12.37;;
23702;SDS011;12030;50.376;8.762;2022-12-18T08:23:42;23.13;;;11.70;;
23702;SDS011;12030;50.376;8.762;2022-12-18T08:26:07;22.97;;;12.50;;
23702;SDS011;12030;50.376;8.762;2022-12-18T08:28:33;21.83;;;11.93;;
23702;SDS011;12030;50.376;8.762;2022-12-18T08:31:00;22.00;;;11.50;;
23702;SDS011;12030;50.376;8.762;2022-12-18T08:33:25;26.17;;;13.07;;
23702;SDS011;12030;50.376;8.762;2022-12-18T08:35:51;22.17;;;12.17;;
23702;SDS011;12030;50.376;8.762;2022-12-18T08:38:17;24.17;;;12.33;;
23702;SDS011;12030;50.376;8.762;2022-12-18T08:40:43;24.23;;;13.23;;
23702;SDS011;12030;50.376;8.762;2022-12-18T08:43:09;21.20;;;11.90;;
23702;SDS011;12030;50.376;8.762;2022-12-18T08:45:54;26.13;;;12.87;;
23702;SDS011;12030;50.376;8.762;2022-12-18T08:48:20;24.03;;;12.70;;
23702;SDS011;12030;50.376;8.762;2022-12-18T08:50:56;22.93;;;12.97;;
23702;SDS011;12030;50.376;8.762;2022-12-18T08:53:22;22.57;;;12.67;;
23702;SDS011;12030;50.376;8.762;2022-12-18T08:55:49;24.43;;;12.10;;
23702;SDS011;12030;50.376;8.762;2022-12-18T08:58:14;22.70;;;12.47;;
23702;SDS011;12030;50.376;8.762;2022-12-18T09:00:40;23.10;;;12.40;;
23702;SDS011;12030;50.376;8.762;2022-12-18T09:03:10;22.17;;;11.90;;
23702;SDS011;12030;50.376;8.762;2022-12-18T09:05:37;22.73;;;12.50;;
23702;SDS011;12030;50.376;8.762;2022-12-18T09:08:03;19.53;;;11.83;;
23702;SDS011;12030;50.376;8.762;2022-12-18T09:10:28;18.53;;;11.13;;
23702;SDS011;12030;50.376;8.762;2022-12-18T09:12:54;20.50;;;11.10;;
23702;SDS011;12030;50.376;8.762;2022-12-18T09:15:21;25.73;;;12.97;;
23702;SDS011;12030;50.376;8.762;2022-12-18T09:17:46;23.77;;;12.73;;
23702;SDS011;12030;50.376;8.762;2022-12-18T09:20:13;21.40;;;12.23;;
23702;SDS011;12030;50.376;8.762;2022-12-18T09:22:38;21.03;;;11.70;;
23702;SDS011;12030;50.376;8.762;2022-12-18T09:25:04;24.70;;;13.17;;
23702;SDS011;12030;50.376;8.762;2022-12-18T09:27:32;21.07;;;12.20;;
23702;SDS011;12030;50.376;8.762;2022-12-18T09:29:58;24.50;;;12.97;;
23702;SDS011;12030;50.376;8.762;2022-12-18T09:32:24;24.77;;;13.27;;
23702;SDS011;12030;50.376;8.762;2022-12-18T09:34:50;24.63;;;13.30;;
23702;SDS011;12030;50.376;8.762;2022-12-18T09:37:15;23.47;;;13.07;;
23702;SDS011;12030;50.376;8.762;2022-12-18T09:39:41;26.13;;;12.83;;
23702;SDS011;12030;50.376;8.762;2022-12-18T09:42:09;21.30;;;13.43;;
23702;SDS011;12030;50.376;8.762;2022-12-18T09:44:40;26.60;;;13.70;;
23702;SDS011;12030;50.376;8.762;2022-12-18T09:47:13;24.13;;;13.87;;
23702;SDS011;12030;50.376;8.762;2022-12-18T09:49:44;24.17;;;14.17;;
23702;SDS011;12030;50.376;8.762;2022-12-18T09:52:14;25.73;;;15.10;;
23702;SDS011;12030;50.376;8.762;2022-12-18T09:55:24;24.27;;;14.30;;
23702;SDS011;12030;50.376;8.762;2022-12-18T09:58:00;23.83;;;14.03;;
23702;SDS011;12030;50.376;8.762;2022-12-18T10:01:00;29.80;;;14.20;;
23702;SDS011;12030;50.376;8.762;2022-12-18T10:03:26;27.57;;;15.40;;
23702;SDS011;12030;50.376;8.762;2022-12-18T10:08:51;26.70;;;14.87;;
23702;SDS011;12030;50.376;8.762;2022-12-18T10:17:02;25.87;;;16.70;;
23702;SDS011;12030;50.376;8.762;2022-12-18T10:19:35;27.93;;;16.03;;
23702;SDS011;12030;50.376;8.762;2022-12-18T10:24:58;26.93;;;15.90;;
23702;SDS011;12030;50.376;8.762;2022-12-18T10:27:30;26.43;;;15.53;;
23702;SDS011;12030;50.376;8.762;2022-12-18T10:29:56;29.10;;;16.63;;
23702;SDS011;12030;50.376;8.762;2022-12-18T10:32:24;26.77;;;15.93;;
23702;SDS011;12030;50.376;8.762;2022-12-18T10:34:53;30.17;;;17.93;;
23702;SDS011;12030;50.376;8.762;2022-12-18T10:37:21;29.70;;;17.47;;
23702;SDS011;12030;50.376;8.762;2022-12-18T10:40:06;33.27;;;17.90;;
23702;SDS011;12030;50.376;8.762;2022-12-18T10:42:39;30.27;;;17.90;;
23702;SDS011;12030;50.376;8.762;2022-12-18T10:45:11;32.40;;;19.13;;
23702;SDS011;12030;50.376;8.762;2022-12-18T10:47:42;30.03;;;18.27;;
23702;SDS011;12030;50.376;8.762;2022-12-18T10:50:18;30.93;;;19.23;;
23702;SDS011;12030;50.376;8.762;2022-12-18T10:52:58;30.93;;;18.57;;
23702;SDS011;12030;50.376;8.762;2022-12-18T10:55:44;29.67;;;18.80;;
23702;SDS011;12030;50.376;8.762;2022-12-18T10:58:24;27.93;;;18.37;;
23702;SDS011;12030;50.376;8.762;2022-12-18T11:06:20;30.90;;;19.67;;
23702;SDS011;12030;50.376;8.762;2022-12-18T11:11:27;29.73;;;19.13;;
23702;SDS011;12030;50.376;8.762;2022-12-18T11:16:22;31.77;;;18.90;;
23702;SDS011;12030;50.376;8.762;2022-12-18T11:18:48;31.07;;;20.47;;
23702;SDS011;12030;50.376;8.762;2022-12-18T11:21:14;31.17;;;19.87;;
23702;SDS011;12030;50.376;8.762;2022-12-18T11:23:50;32.70;;;19.70;;
23702;SDS011;12030;50.376;8.762;2022-12-18T11:26:17;31.57;;;19.93;;
23702;SDS011;12030;50.376;8.762;2022-12-18T11:28:44;32.07;;;20.80;;
23702;SDS011;12030;50.376;8.762;2022-12-18T11:31:33;35.13;;;21.03;;
23702;SDS011;12030;50.376;8.762;2022-12-18T11:36:39;31.70;;;20.83;;
23702;SDS011;12030;50.376;8.762;2022-12-18T11:39:11;31.63;;;20.50;;
23702;SDS011;12030;50.376;8.762;2022-12-18T11:41:46;35.47;;;20.83;;
23702;SDS011;12030;50.376;8.762;2022-12-18T11:44:46;32.37;;;20.67;;
23702;SDS011;12030;50.376;8.762;2022-12-18T11:50:21;30.23;;;20.37;;
23702;SDS011;12030;50.376;8.762;2022-12-18T11:52:50;34.50;;;21.20;;
23702;SDS011;12030;50.376;8.762;2022-12-18T11:55:18;34.13;;;21.30;;
23702;SDS011;12030;50.376;8.762;2022-12-18T11:58:05;33.60;;;21.83;;
23702;SDS011;12030;50.376;8.762;2022-12-18T12:00:45;34.10;;;21.10;;
23702;SDS011;12030;50.376;8.762;2022-12-18T12:06:53;33.07;;;21.10;;
23702;SDS011;12030;50.376;8.762;2022-12-18T12:09:24;34.43;;;21.37;;
23702;SDS011;12030;50.376;8.762;2022-12-18T12:12:02;36.07;;;21.93;;
23702;SDS011;12030;50.376;8.762;2022-12-18T12:17:38;34.33;;;21.53;;
23702;SDS011;12030;50.376;8.762;2022-12-18T12:23:34;33.80;;;21.20;;
23702;SDS011;12030;50.376;8.762;2022-12-18T12:31:37;31.20;;;19.77;;
23702;SDS011;12030;50.376;8.762;2022-12-18T12:34:30;34.90;;;20.57;;
23702;SDS011;12030;50.376;8.762;2022-12-18T12:39:38;34.43;;;21.13;;
23702;SDS011;12030;50.376;8.762;2022-12-18T12:42:08;36.27;;;21.60;;
23702;SDS011;12030;50.376;8.762;2022-12-18T12:44:57;36.73;;;23.20;;
23702;SDS011;12030;50.376;8.762;2022-12-18T12:47:33;35.20;;;21.90;;
23702;SDS011;12030;50.376;8.762;2022-12-18T12:50:04;34.03;;;21.83;;
23702;SDS011;12030;50.376;8.762;2022-12-18T12:52:42;38.03;;;22.07;;
23702;SDS011;12030;50.376;8.762;2022-12-18T12:55:15;35.43;;;21.83;;
23702;SDS011;12030;50.376;8.762;2022-12-18T12:58:00;34.70;;;20.90;;
23702;SDS011;12030;50.376;8.762;2022-12-18T13:00:46;34.40;;;21.70;;
23702;SDS011;12030;50.376;8.762;2022-12-18T13:03:30;33.67;;;21.17;;
23702;SDS011;12030;50.376;8.762;2022-12-18T13:08:59;35.70;;;21.40;;
23702;SDS011;12030;50.376;8.762;2022-12-18T13:11:42;38.10;;;21.40;;
23702;SDS011;12030;50.376;8.762;2022-12-18T13:14:29;35.00;;;21.77;;
23702;SDS011;12030;50.376;8.762;2022-12-18T13:20:04;36.20;;;22.30;;
23702;SDS011;12030;50.376;8.762;2022-12-18T13:25:01;35.83;;;22.27;;
23702;SDS011;12030;50.376;8.762;2022-12-18T13:38:24;34.53;;;20.87;;
23702;SDS011;12030;50.376;8.762;2022-12-18T13:43:52;37.73;;;21.33;;
23702;SDS011;12030;50.376;8.762;2022-12-18T13:48:51;34.97;;;22.97;;
23702;SDS011;12030;50.376;8.762;2022-12-18T13:51:35;40.50;;;22.40;;
23702;SDS011;12030;50.376;8.762;2022-12-18T13:56:59;35.87;;;20.87;;
23702;SDS011;12030;50.376;8.762;2022-12-18T13:59:26;35.93;;;21.93;;
23702;SDS011;12030;50.376;8.762;2022-12-18T14:02:16;38.53;;;22.97;;
23702;SDS011;12030;50.376;8.762;2022-12-18T14:04:46;36.63;;;21.00;;
23702;SDS011;12030;50.376;8.762;2022-12-18T14:07:13;40.37;;;21.67;;
23702;SDS011;12030;50.376;8.762;2022-12-18T14:09:49;40.20;;;23.23;;
23702;SDS011;12030;50.376;8.762;2022-12-18T14:12:29;35.37;;;21.13;;
23702;SDS011;12030;50.376;8.762;2022-12-18T14:15:31;36.97;;;22.37;;
23702;SDS011;12030;50.376;8.762;2022-12-18T14:20:31;41.03;;;24.13;;
23702;SDS011;12030;50.376;8.762;2022-12-18T14:22:57;43.30;;;23.73;;
23702;SDS011;12030;50.376;8.762;2022-12-18T14:25:25;39.17;;;24.07;;
23702;SDS011;12030;50.376;8.762;2022-12-18T14:27:53;35.97;;;22.43;;
23702;SDS011;12030;50.376;8.762;2022-12-18T14:30:29;36.63;;;22.17;;
23702;SDS011;12030;50.376;8.762;2022-12-18T14:33:01;37.03;;;22.37;;
23702;SDS011;12030;50.376;8.762;2022-12-18T14:35:39;38.63;;;23.27;;
23702;SDS011;12030;50.376;8.762;2022-12-18T14:40:41;36.97;;;22.13;;
23702;SDS011;12030;50.376;8.762;2022-12-18T14:43:10;37.93;;;23.63;;
23702;SDS011;12030;50.376;8.762;2022-12-18T14:45:37;38.83;;;23.13;;
23702;SDS011;12030;50.376;8.762;2022-12-18T14:48:12;39.40;;;22.70;;
23702;SDS011;12030;50.376;8.762;2022-12-18T14:50:39;39.43;;;23.43;;
23702;SDS011;12030;50.376;8.762;2022-12-18T14:53:04;39.07;;;22.70;;
23702;SDS011;12030;50.376;8.762;2022-12-18T14:55:30;42.17;;;23.73;;
23702;SDS011;12030;50.376;8.762;2022-12-18T14:57:56;40.63;;;24.00;;
23702;SDS011;12030;50.376;8.762;2022-12-18T15:00:23;36.17;;;22.40;;
23702;SDS011;12030;50.376;8.762;2022-12-18T15:02:52;41.87;;;22.33;;
23702;SDS011;12030;50.376;8.762;2022-12-18T15:05:20;39.93;;;23.40;;
23702;SDS011;12030;50.376;8.762;2022-12-18T15:07:54;37.43;;;23.40;;
23702;SDS011;12030;50.376;8.762;2022-12-18T15:10:24;39.30;;;22.27;;
23702;SDS011;12030;50.376;8.762;2022-12-18T15:18:01;36.93;;;22.67;;
23702;SDS011;12030;50.376;8.762;2022-12-18T15:20:27;38.90;;;23.43;;
23702;SDS011;12030;50.376;8.762;2022-12-18T15:22:56;43.90;;;24.80;;
23702;SDS011;12030;50.376;8.762;2022-12-18T15:25:31;44.90;;;25.57;;
23702;SDS011;12030;50.376;8.762;2022-12-18T15:27:59;40.53;;;23.87;;
23702;SDS011;12030;50.376;8.762;2022-12-18T15:30:25;42.60;;;25.20;;
23702;SDS011;12030;50.376;8.762;2022-12-18T15:32:51;43.83;;;25.20;;
23702;SDS011;12030;50.376;8.762;2022-12-18T15:35:37;43.60;;;25.50;;
23702;SDS011;12030;50.376;8.762;2022-12-18T15:38:02;44.53;;;25.23;;
23702;SDS011;12030;50.376;8.762;2022-12-18T15:40:28;43.27;;;24.80;;
23702;SDS011;12030;50.376;8.762;2022-12-18T15:42:54;45.43;;;27.27;;
23702;SDS011;12030;50.376;8.762;2022-12-18T15:45:39;43.83;;;25.90;;
23702;SDS011;12030;50.376;8.762;2022-12-18T15:48:15;42.50;;;25.40;;
23702;SDS011;12030;50.376;8.762;2022-12-18T15:50:45;43.97;;;25.57;;
23702;SDS011;12030;50.376;8.762;2022-12-18T15:53:11;40.60;;;24.23;;
23702;SDS011;12030;50.376;8.762;2022-12-18T15:55:36;39.90;;;23.90;;
23702;SDS011;12030;50.376;8.762;2022-12-18T15:58:21;44.53;;;25.33;;
23702;SDS011;12030;50.376;8.762;2022-12-18T16:00:46;41.03;;;24.00;;
23702;SDS011;12030;50.376;8.762;2022-12-18T16:03:12;42.03;;;25.13;;
23702;SDS011;12030;50.376;8.762;2022-12-18T16:05:38;42.07;;;24.53;;
23702;SDS011;12030;50.376;8.762;2022-12-18T16:08:03;41.23;;;24.20;;
23702;SDS011;12030;50.376;8.762;2022-12-18T16:10:29;39.67;;;24.03;;
23702;SDS011;12030;50.376;8.762;2022-12-18T16:12:55;42.83;;;25.13;;
23702;SDS011;12030;50.376;8.762;2022-12-18T16:15:20;45.33;;;25.57;;
23702;SDS011;12030;50.376;8.762;2022-12-18T16:17:46;41.33;;;24.97;;
23702;SDS011;12030;50.376;8.762;2022-12-18T16:20:16;43.33;;;23.83;;
23702;SDS011;12030;50.376;8.762;2022-12-18T16:22:45;39.53;;;24.53;;
23702;SDS011;12030;50.376;8.762;2022-12-18T16:25:22;40.50;;;24.03;;
23702;SDS011;12030;50.376;8.762;2022-12-18T16:27:50;40.50;;;24.47;;